sensor_id;sensor_type;location;lat;lon;timestamp;pressure;altitude;pressure_sealevel;temperature;humidity
6134;BME280;3098;42.678;23.364;2024-01-16T00:00:21;93356.94;;;1.70;100.00
6134;BME280;3098;42.678;23.364;2024-01-16T00:02:53;92907.91;;;-1.35;100.00
6134;BME280;3098;42.678;23.364;2024-01-16T00:10:47;93256.06;;;0.69;100.00
6134;BME280;3098;42.678;23.364;2024-01-16T00:13:22;93003.53;;;-0.76;100.00
6134;BME280;3098;42.678;23.364;2024-01-16T00:15:53;93347.81;;;1.67;100.00
6134;BME280;3098;42.678;23.364;2024-01-16T00:18:25;93328.56;;;1.36;100.00
6134;BME280;3098;42.678;23.364;2024-01-16T00:21:00;93155.28;;;0.13;100.00
6134;BME280;3098;42.678;23.364;2024-01-16T00:23:30;93474.03;;;2.41;100.00
6134;BME280;3098;42.678;23.364;2024-01-16T00:31:16;93508.81;;;2.42;100.00
6134;BME280;3098;42.678;23.364;2024-01-16T00:33:44;93491.75;;;2.71;100.00
6134;BME280;3098;42.678;23.364;2024-01-16T00:36:14;93020.25;;;-0.31;100.00
6134;BME280;3098;42.678;23.364;2024-01-16T00:38:46;93092.59;;;-0.09;100.00
6134;BME280;3098;42.678;23.364;2024-01-16T00:41:22;93329.50;;;1.54;100.00
6134;BME280;3098;42.678;23.364;2024-01-16T00:44:00;92959.94;;;-0.84;100.00
6134;BME280;3098;42.678;23.364;2024-01-16T00:46:45;93360.38;;;1.52;100.00
6134;BME280;3098;42.678;23.364;2024-01-16T00:49:17;93353.13;;;1.62;100.00
6134;BME280;3098;42.678;23.364;2024-01-16T00:51:47;93020.69;;;-0.42;100.00
6134;BME280;3098;42.678;23.364;2024-01-16T00:54:21;93367.28;;;2.02;100.00
6134;BME280;3098;42.678;23.364;2024-01-16T00:56:51;93409.31;;;2.06;100.00
6134;BME280;3098;42.678;23.364;2024-01-16T00:59:28;93128.59;;;0.35;100.00
6134;BME280;3098;42.678;23.364;2024-01-16T01:05:00;93178.53;;;0.42;100.00
6134;BME280;3098;42.678;23.364;2024-01-16T01:07:34;93391.19;;;1.68;100.00
6134;BME280;3098;42.678;23.364;2024-01-16T01:10:16;93578.50;;;2.78;100.00
6134;BME280;3098;42.678;23.364;2024-01-16T01:12:57;93536.06;;;2.54;100.00
6134;BME280;3098;42.678;23.364;2024-01-16T01:15:35;93149.19;;;0.04;100.00
6134;BME280;3098;42.678;23.364;2024-01-16T01:18:17;93311.22;;;1.40;100.00
6134;BME280;3098;42.678;23.364;2024-01-16T01:23:39;93126.75;;;0.35;100.00
6134;BME280;3098;42.678;23.364;2024-01-16T01:26:14;93527.13;;;2.82;100.00
6134;BME280;3098;42.678;23.364;2024-01-16T01:28:54;93036.03;;;-0.41;100.00
6134;BME280;3098;42.678;23.364;2024-01-16T01:31:25;93531.38;;;2.78;100.00
6134;BME280;3098;42.678;23.364;2024-01-16T01:33:59;93101.88;;;-0.03;100.00
6134;BME280;3098;42.678;23.364;2024-01-16T01:36:37;93125.94;;;0.08;100.00
6134;BME280;3098;42.678;23.364;2024-01-16T01:39:14;93527.91;;;2.83;100.00
6134;BME280;3098;42.678;23.364;2024-01-16T01:41:56;93348.41;;;1.78;100.00
6134;BME280;3098;42.678;23.364;2024-01-16T01:44:32;93355.94;;;1.80;100.00
6134;BME280;3098;42.678;23.364;2024-01-16T01:47:18;93079.94;;;-0.02;100.00
6134;BME280;3098;42.678;23.364;2024-01-16T01:49:58;93376.00;;;1.84;100.00
6134;BME280;3098;42.678;23.364;2024-01-16T01:52:37;93507.81;;;2.78;100.00
6134;BME280;3098;42.678;23.364;2024-01-16T01:57:57;93276.38;;;1.31;100.00
6134;BME280;3098;42.678;23.364;2024-01-16T02:00:29;93514.00;;;2.96;100.00
6134;BME280;3098;42.678;23.364;2024-01-16T02:03:03;93350.81;;;1.88;100.00
6134;BME280;3098;42.678;23.364;2024-01-16T02:05:42;93117.13;;;0.49;100.00
6134;BME280;3098;42.678;23.364;2024-01-16T02:08:28;93125.13;;;0.39;100.00
6134;BME280;3098;42.678;23.364;2024-01-16T02:11:03;93383.53;;;2.26;100.00
6134;BME280;3098;42.678;23.364;2024-01-16T02:16:17;93095.66;;;0.25;100.00
6134;BME280;3098;42.678;23.364;2024-01-16T02:18:52;93531.22;;;3.24;100.00
6134;BME280;3098;42.678;23.364;2024-01-16T02:21:31;93159.84;;;0.53;100.00
6134;BME280;3098;42.678;23.364;2024-01-16T02:24:16;93056.59;;;0.07;100.00
6134;BME280;3098;42.678;23.364;2024-01-16T02:42:55;93451.56;;;2.89;100.00
6134;BME280;3098;42.678;23.364;2024-01-16T02:45:27;93573.53;;;3.67;100.00
6134;BME280;3098;42.678;23.364;2024-01-16T02:48:04;93188.28;;;0.96;100.00
6134;BME280;3098;42.678;23.364;2024-01-16T02:50:37;93590.66;;;3.51;100.00
6134;BME280;3098;42.678;23.364;2024-01-16T02:53:19;93626.19;;;3.57;100.00
6134;BME280;3098;42.678;23.364;2024-01-16T02:56:11;93175.88;;;0.61;100.00
6134;BME280;3098;42.678;23.364;2024-01-16T03:37:38;93568.44;;;2.72;100.00
6134;BME280;3098;42.678;23.364;2024-01-16T03:40:14;93595.88;;;3.02;100.00
6134;BME280;3098;42.678;23.364;2024-01-16T03:42:46;93543.78;;;2.32;100.00
6134;BME280;3098;42.678;23.364;2024-01-16T03:45:28;93531.06;;;2.12;100.00
6134;BME280;3098;42.678;23.364;2024-01-16T03:48:06;93539.38;;;2.14;100.00
6134;BME280;3098;42.678;23.364;2024-01-16T03:50:41;93418.38;;;1.22;100.00
6134;BME280;3098;42.678;23.364;2024-01-16T03:53:53;93822.03;;;3.70;100.00
6134;BME280;3098;42.678;23.364;2024-01-16T03:56:29;93774.50;;;3.31;100.00
6134;BME280;3098;42.678;23.364;2024-01-16T03:59:06;93429.25;;;1.10;100.00
6134;BME280;3098;42.678;23.364;2024-01-16T04:01:39;93478.56;;;1.30;100.00
6134;BME280;3098;42.678;23.364;2024-01-16T04:04:24;93590.47;;;1.93;100.00
6134;BME280;3098;42.678;23.364;2024-01-16T04:07:01;93624.22;;;2.08;100.00
6134;BME280;3098;42.678;23.364;2024-01-16T04:09:43;93862.84;;;3.44;100.00
6134;BME280;3098;42.678;23.364;2024-01-16T04:12:22;93729.53;;;2.64;100.00
6134;BME280;3098;42.678;23.364;2024-01-16T04:15:05;93717.94;;;2.38;100.00
6134;BME280;3098;42.678;23.364;2024-01-16T04:17:57;93612.75;;;1.71;100.00
6134;BME280;3098;42.678;23.364;2024-01-16T04:20:34;93519.06;;;1.09;100.00
6134;BME280;3098;42.678;23.364;2024-01-16T04:23:12;93499.81;;;0.86;100.00
6134;BME280;3098;42.678;23.364;2024-01-16T04:28:26;93750.47;;;2.32;100.00
6134;BME280;3098;42.678;23.364;2024-01-16T04:31:01;93898.25;;;3.28;100.00
6134;BME280;3098;42.678;23.364;2024-01-16T04:33:34;93903.41;;;3.33;100.00
6134;BME280;3098;42.678;23.364;2024-01-16T04:36:12;93815.16;;;2.45;100.00
6134;BME280;3098;42.678;23.364;2024-01-16T04:38:45;93895.72;;;3.23;100.00
6134;BME280;3098;42.678;23.364;2024-01-16T04:41:22;93490.22;;;0.39;100.00
6134;BME280;3098;42.678;23.364;2024-01-16T04:44:00;93485.19;;;0.43;100.00
6134;BME280;3098;42.678;23.364;2024-01-16T04:46:39;93897.41;;;3.14;100.00
6134;BME280;3098;42.678;23.364;2024-01-16T04:49:11;93886.47;;;2.74;100.00
6134;BME280;3098;42.678;23.364;2024-01-16T04:51:40;93942.69;;;3.01;100.00
6134;BME280;3098;42.678;23.364;2024-01-16T04:54:12;93526.88;;;0.24;100.00
6134;BME280;3098;42.678;23.364;2024-01-16T04:56:41;93821.84;;;2.14;100.00
6134;BME280;3098;42.678;23.364;2024-01-16T05:01:47;93619.13;;;0.57;100.00
6134;BME280;3098;42.678;23.364;2024-01-16T05:04:20;93794.81;;;1.57;100.00
6134;BME280;3098;42.678;23.364;2024-01-16T05:06:52;93806.31;;;1.56;100.00
6134;BME280;3098;42.678;23.364;2024-01-16T05:09:24;93511.31;;;-0.38;100.00
6134;BME280;3098;42.678;23.364;2024-01-16T05:11:54;93668.41;;;0.58;100.00
6134;BME280;3098;42.678;23.364;2024-01-16T05:14:28;93779.78;;;1.21;100.00
6134;BME280;3098;42.678;23.364;2024-01-16T05:17:05;93992.38;;;2.63;100.00
6134;BME280;3098;42.678;23.364;2024-01-16T05:19:42;93737.13;;;0.78;100.00
6134;BME280;3098;42.678;23.364;2024-01-16T05:22:14;93706.69;;;0.68;100.00
6134;BME280;3098;42.678;23.364;2024-01-16T05:24:42;93876.88;;;1.56;100.00
6134;BME280;3098;42.678;23.364;2024-01-16T05:27:12;93730.75;;;0.60;100.00
6134;BME280;3098;42.678;23.364;2024-01-16T05:29:44;93954.63;;;1.98;100.00
6134;BME280;3098;42.678;23.364;2024-01-16T05:32:16;94037.94;;;2.62;100.00
6134;BME280;3098;42.678;23.364;2024-01-16T05:34:57;94053.09;;;2.65;100.00
6134;BME280;3098;42.678;23.364;2024-01-16T05:37:33;93748.50;;;0.58;100.00
6134;BME280;3098;42.678;23.364;2024-01-16T05:40:07;94040.88;;;2.56;100.00
6134;BME280;3098;42.678;23.364;2024-01-16T05:42:41;93866.41;;;1.33;100.00
6134;BME280;3098;42.678;23.364;2024-01-16T05:45:11;93902.56;;;1.49;100.00
6134;BME280;3098;42.678;23.364;2024-01-16T05:47:43;94041.13;;;2.02;100.00
6134;BME280;3098;42.678;23.364;2024-01-16T05:50:14;93867.75;;;0.91;100.00
6134;BME280;3098;42.678;23.364;2024-01-16T05:52:46;93643.19;;;-0.52;100.00
6134;BME280;3098;42.678;23.364;2024-01-16T05:55:15;93795.03;;;0.46;100.00
6134;BME280;3098;42.678;23.364;2024-01-16T05:57:43;93729.22;;;-0.19;100.00
6134;BME280;3098;42.678;23.364;2024-01-16T06:00:16;93975.56;;;1.31;100.00
6134;BME280;3098;42.678;23.364;2024-01-16T06:02:53;93831.13;;;0.34;100.00
6134;BME280;3098;42.678;23.364;2024-01-16T06:08:05;94115.34;;;2.11;100.00
6134;BME280;3098;42.678;23.364;2024-01-16T06:10:33;93926.56;;;0.84;100.00
6134;BME280;3098;42.678;23.364;2024-01-16T06:13:01;94052.44;;;1.63;100.00
6134;BME280;3098;42.678;23.364;2024-01-16T06:15:30;93927.13;;;0.76;100.00
6134;BME280;3098;42.678;23.364;2024-01-16T06:17:58;94132.63;;;2.12;100.00
6134;BME280;3098;42.678;23.364;2024-01-16T06:20:29;94143.63;;;2.09;100.00
6134;BME280;3098;42.678;23.364;2024-01-16T06:40:19;93772.38;;;-0.62;100.00
6134;BME280;3098;42.678;23.364;2024-01-16T06:43:00;93770.34;;;-0.70;100.00
6134;BME280;3098;42.678;23.364;2024-01-16T06:45:42;94238.03;;;2.12;100.00
6134;BME280;3098;42.678;23.364;2024-01-16T06:48:14;93718.41;;;-1.15;100.00
6134;BME280;3098;42.678;23.364;2024-01-16T06:50:57;94226.00;;;2.11;100.00
6134;BME280;3098;42.678;23.364;2024-01-16T06:53:37;93809.38;;;-0.65;100.00
6134;BME280;3098;42.678;23.364;2024-01-16T07:57:36;94410.66;;;2.17;100.00
6134;BME280;3098;42.678;23.364;2024-01-16T08:00:07;94420.59;;;2.20;100.00
6134;BME280;3098;42.678;23.364;2024-01-16T08:02:38;94430.00;;;2.16;100.00
6134;BME280;3098;42.678;23.364;2024-01-16T08:05:20;94188.13;;;0.76;100.00
6134;BME280;3098;42.678;23.364;2024-01-16T08:07:51;94435.19;;;2.31;100.00
6134;BME280;3098;42.678;23.364;2024-01-16T08:10:24;93945.81;;;-0.61;100.00
6134;BME280;3098;42.678;23.364;2024-01-16T08:15:58;94415.53;;;2.39;100.00
6134;BME280;3098;42.678;23.364;2024-01-16T08:18:33;94155.22;;;0.75;100.00
6134;BME280;3098;42.678;23.364;2024-01-16T08:21:10;94444.31;;;2.39;100.00
6134;BME280;3098;42.678;23.364;2024-01-16T08:23:42;94314.34;;;1.45;100.00
6134;BME280;3098;42.678;23.364;2024-01-16T08:26:17;94189.44;;;0.73;100.00
6134;BME280;3098;42.678;23.364;2024-01-16T08:28:50;94451.69;;;2.32;100.00
6134;BME280;3098;42.678;23.364;2024-01-16T08:34:14;94344.38;;;1.63;100.00
6134;BME280;3098;42.678;23.364;2024-01-16T08:37:02;94319.84;;;1.54;100.00
6134;BME280;3098;42.678;23.364;2024-01-16T08:39:47;94463.06;;;2.61;100.00
6134;BME280;3098;42.678;23.364;2024-01-16T08:42:23;94457.13;;;2.46;100.00
6134;BME280;3098;42.678;23.364;2024-01-16T08:44:55;94316.19;;;1.45;100.00
6134;BME280;3098;42.678;23.364;2024-01-16T08:47:30;94350.91;;;1.60;100.00
6134;BME280;3098;42.678;23.364;2024-01-16T08:50:13;94089.34;;;-0.02;100.00
6134;BME280;3098;42.678;23.364;2024-01-16T08:52:49;94209.25;;;0.64;100.00
6134;BME280;3098;42.678;23.364;2024-01-16T08:55:33;94058.06;;;-0.47;100.00
6134;BME280;3098;42.678;23.364;2024-01-16T08:58:05;94325.38;;;1.17;100.00
6134;BME280;3098;42.678;23.364;2024-01-16T09:00:38;94498.75;;;2.37;100.00
6134;BME280;3098;42.678;23.364;2024-01-16T09:03:08;94511.09;;;2.21;100.00
6134;BME280;3098;42.678;23.364;2024-01-16T09:08:38;94423.31;;;1.65;100.00
6134;BME280;3098;42.678;23.364;2024-01-16T09:11:14;94083.56;;;-0.59;100.00
6134;BME280;3098;42.678;23.364;2024-01-16T09:13:58;94119.81;;;-0.37;100.00
6134;BME280;3098;42.678;23.364;2024-01-16T09:16:31;94090.38;;;-0.28;100.00
6134;BME280;3098;42.678;23.364;2024-01-16T09:19:02;94089.06;;;-0.10;100.00
6134;BME280;3098;42.678;23.364;2024-01-16T09:21:31;94249.16;;;1.00;100.00
6134;BME280;3098;42.678;23.364;2024-01-16T09:24:13;94500.50;;;2.62;100.00
6134;BME280;3098;42.678;23.364;2024-01-16T09:26:50;94513.28;;;2.83;100.00
6134;BME280;3098;42.678;23.364;2024-01-16T09:29:20;94021.59;;;-0.42;100.00
6134;BME280;3098;42.678;23.364;2024-01-16T09:31:57;94398.72;;;1.86;100.00
6134;BME280;3098;42.678;23.364;2024-01-16T09:34:30;94347.78;;;1.63;100.00
6134;BME280;3098;42.678;23.364;2024-01-16T09:37:07;94256.47;;;1.03;100.00
6134;BME280;3098;42.678;23.364;2024-01-16T09:39:41;94257.72;;;1.21;100.00
6134;BME280;3098;42.678;23.364;2024-01-16T09:42:11;94536.53;;;2.95;100.00
6134;BME280;3098;42.678;23.364;2024-01-16T09:44:48;94265.22;;;1.57;100.00
6134;BME280;3098;42.678;23.364;2024-01-16T09:47:20;94516.63;;;3.38;100.00
6134;BME280;3098;42.678;23.364;2024-01-16T09:49:55;94220.81;;;1.52;100.00
6134;BME280;3098;42.678;23.364;2024-01-16T09:52:28;94418.38;;;2.97;100.00
6134;BME280;3098;42.678;23.364;2024-01-16T09:55:08;94287.63;;;1.79;100.00
6134;BME280;3098;42.678;23.364;2024-01-16T09:57:49;94068.59;;;0.63;100.00
6134;BME280;3098;42.678;23.364;2024-01-16T10:00:24;94418.63;;;3.00;100.00
6134;BME280;3098;42.678;23.364;2024-01-16T10:02:53;94140.41;;;1.34;100.00
6134;BME280;3098;42.678;23.364;2024-01-16T10:05:29;94519.19;;;3.87;100.00
6134;BME280;3098;42.678;23.364;2024-01-16T10:08:06;94125.44;;;1.45;100.00
6134;BME280;3098;42.678;23.364;2024-01-16T10:10:41;94273.69;;;2.76;100.00
6134;BME280;3098;42.678;23.364;2024-01-16T10:13:09;94302.41;;;2.47;100.00
6134;BME280;3098;42.678;23.364;2024-01-16T10:15:43;94375.03;;;3.14;100.00
6134;BME280;3098;42.678;23.364;2024-01-16T10:18:25;94032.53;;;0.85;100.00
6134;BME280;3098;42.678;23.364;2024-01-16T10:20:58;94079.38;;;1.64;100.00
6134;BME280;3098;42.678;23.364;2024-01-16T10:23:27;94514.03;;;5.05;100.00
6134;BME280;3098;42.678;23.364;2024-01-16T10:26:17;94394.75;;;4.22;100.00
6134;BME280;3098;42.678;23.364;2024-01-16T10:28:48;94432.34;;;4.17;100.00
6134;BME280;3098;42.678;23.364;2024-01-16T10:31:15;94081.28;;;2.21;100.00
6134;BME280;3098;42.678;23.364;2024-01-16T10:33:43;94134.84;;;2.57;100.00
6134;BME280;3098;42.678;23.364;2024-01-16T10:36:12;94548.16;;;4.87;100.00
6134;BME280;3098;42.678;23.364;2024-01-16T10:38:43;94210.88;;;2.42;100.00
6134;BME280;3098;42.678;23.364;2024-01-16T10:41:16;94351.25;;;3.68;100.00
6134;BME280;3098;42.678;23.364;2024-01-16T10:44:04;94170.28;;;2.45;100.00
6134;BME280;3098;42.678;23.364;2024-01-16T10:46:33;94292.88;;;4.24;100.00
6134;BME280;3098;42.678;23.364;2024-01-16T10:49:02;94546.75;;;6.57;100.00
6134;BME280;3098;42.678;23.364;2024-01-16T10:51:31;94320.47;;;4.96;100.00
6134;BME280;3098;42.678;23.364;2024-01-16T10:54:05;94159.59;;;3.83;100.00
6134;BME280;3098;42.678;23.364;2024-01-16T10:56:50;94177.28;;;3.54;100.00
6134;BME280;3098;42.678;23.364;2024-01-16T10:59:25;94349.91;;;5.11;100.00
6134;BME280;3098;42.678;23.364;2024-01-16T11:01:56;94389.34;;;5.62;100.00
6134;BME280;3098;42.678;23.364;2024-01-16T11:04:30;94092.00;;;3.38;100.00
6134;BME280;3098;42.678;23.364;2024-01-16T11:07:02;94162.84;;;3.57;100.00
6134;BME280;3098;42.678;23.364;2024-01-16T11:09:35;94389.72;;;4.25;100.00
6134;BME280;3098;42.678;23.364;2024-01-16T11:12:19;94551.97;;;4.76;100.00
6134;BME280;3098;42.678;23.364;2024-01-16T11:14:53;94158.13;;;2.25;100.00
6134;BME280;3098;42.678;23.364;2024-01-16T11:17:25;94559.16;;;4.65;100.00
6134;BME280;3098;42.678;23.364;2024-01-16T11:19:57;94046.31;;;1.39;100.00
6134;BME280;3098;42.678;23.364;2024-01-16T11:22:29;94307.34;;;2.92;100.00
6134;BME280;3098;42.678;23.364;2024-01-16T11:25:08;94536.63;;;4.59;100.00
6134;BME280;3098;42.678;23.364;2024-01-16T11:27:39;94401.44;;;3.80;100.00
6134;BME280;3098;42.678;23.364;2024-01-16T11:30:29;94556.31;;;4.61;100.00
6134;BME280;3098;42.678;23.364;2024-01-16T11:32:58;94185.25;;;2.00;100.00
6134;BME280;3098;42.678;23.364;2024-01-16T11:35:34;94308.19;;;2.44;100.00
6134;BME280;3098;42.678;23.364;2024-01-16T11:38:10;94559.53;;;3.96;100.00
6134;BME280;3098;42.678;23.364;2024-01-16T11:40:50;94389.06;;;2.89;100.00
6134;BME280;3098;42.678;23.364;2024-01-16T11:43:39;94104.94;;;1.23;100.00
6134;BME280;3098;42.678;23.364;2024-01-16T11:46:13;94125.34;;;1.11;100.00
6134;BME280;3098;42.678;23.364;2024-01-16T11:49:01;94087.19;;;0.46;100.00
6134;BME280;3098;42.678;23.364;2024-01-16T11:51:29;94535.97;;;3.47;100.00
6134;BME280;3098;42.678;23.364;2024-01-16T11:53:58;94408.22;;;2.85;100.00
6134;BME280;3098;42.678;23.364;2024-01-16T11:56:46;94566.03;;;3.65;100.00
6134;BME280;3098;42.678;23.364;2024-01-16T11:59:55;94303.31;;;1.79;100.00
6134;BME280;3098;42.678;23.364;2024-01-16T12:02:38;94414.91;;;2.62;100.00
6134;BME280;3098;42.678;23.364;2024-01-16T12:05:12;94589.75;;;3.88;100.00
6134;BME280;3098;42.678;23.364;2024-01-16T12:07:48;94405.66;;;3.19;100.00
6134;BME280;3098;42.678;23.364;2024-01-16T12:10:25;94218.34;;;1.71;100.00
6134;BME280;3098;42.678;23.364;2024-01-16T12:13:00;94588.25;;;3.72;100.00
6134;BME280;3098;42.678;23.364;2024-01-16T12:15:36;94616.88;;;3.74;100.00
6134;BME280;3098;42.678;23.364;2024-01-16T12:18:06;94424.44;;;2.87;100.00
6134;BME280;3098;42.678;23.364;2024-01-16T12:20:37;94412.88;;;2.49;100.00
6134;BME280;3098;42.678;23.364;2024-01-16T12:23:11;94381.19;;;2.51;100.00
6134;BME280;3098;42.678;23.364;2024-01-16T12:25:53;94579.66;;;4.05;100.00
6134;BME280;3098;42.678;23.364;2024-01-16T12:28:25;94188.97;;;1.40;100.00
6134;BME280;3098;42.678;23.364;2024-01-16T12:30:56;94434.63;;;2.94;100.00
6134;BME280;3098;42.678;23.364;2024-01-16T12:33:28;94228.13;;;1.50;100.00
6134;BME280;3098;42.678;23.364;2024-01-16T12:36:02;94192.75;;;1.04;100.00
6134;BME280;3098;42.678;23.364;2024-01-16T12:38:33;94159.13;;;0.82;100.00
6134;BME280;3098;42.678;23.364;2024-01-16T12:41:08;94340.44;;;1.76;100.00
6134;BME280;3098;42.678;23.364;2024-01-16T12:43:41;94225.09;;;1.18;100.00
6134;BME280;3098;42.678;23.364;2024-01-16T12:46:15;94473.06;;;2.54;100.00
6134;BME280;3098;42.678;23.364;2024-01-16T12:48:49;94236.63;;;0.97;100.00
6134;BME280;3098;42.678;23.364;2024-01-16T12:51:21;94607.75;;;3.61;100.00
6134;BME280;3098;42.678;23.364;2024-01-16T12:53:52;94359.13;;;2.13;100.00
6134;BME280;3098;42.678;23.364;2024-01-16T12:56:23;94211.00;;;1.19;100.00
6134;BME280;3098;42.678;23.364;2024-01-16T12:59:08;94439.75;;;2.65;100.00
6134;BME280;3098;42.678;23.364;2024-01-16T13:01:47;94585.97;;;3.61;100.00
6134;BME280;3098;42.678;23.364;2024-01-16T13:04:20;94461.22;;;2.67;100.00
6134;BME280;3098;42.678;23.364;2024-01-16T13:06:47;94288.69;;;1.67;100.00
6134;BME280;3098;42.678;23.364;2024-01-16T13:09:16;94470.84;;;2.86;100.00
6134;BME280;3098;42.678;23.364;2024-01-16T13:11:47;94515.09;;;3.37;100.00
6134;BME280;3098;42.678;23.364;2024-01-16T13:14:21;94137.47;;;0.82;100.00
6134;BME280;3098;42.678;23.364;2024-01-16T13:19:36;94201.63;;;1.03;100.00
6134;BME280;3098;42.678;23.364;2024-01-16T13:22:08;94234.41;;;1.39;100.00
6134;BME280;3098;42.678;23.364;2024-01-16T13:24:39;94280.16;;;1.47;100.00
6134;BME280;3098;42.678;23.364;2024-01-16T13:27:11;94653.97;;;3.96;100.00
6134;BME280;3098;42.678;23.364;2024-01-16T13:29:40;94228.22;;;1.20;100.00
6134;BME280;3098;42.678;23.364;2024-01-16T13:32:10;94627.25;;;3.45;100.00
6134;BME280;3098;42.678;23.364;2024-01-16T13:34:40;94393.72;;;1.90;100.00
6134;BME280;3098;42.678;23.364;2024-01-16T13:37:19;94185.78;;;0.54;100.00
6134;BME280;3098;42.678;23.364;2024-01-16T13:39:50;94236.13;;;0.80;100.00
6134;BME280;3098;42.678;23.364;2024-01-16T13:42:29;94530.97;;;2.27;100.00
6134;BME280;3098;42.678;23.364;2024-01-16T13:45:01;94427.47;;;1.71;100.00
6134;BME280;3098;42.678;23.364;2024-01-16T13:47:31;94624.50;;;3.01;100.00
6134;BME280;3098;42.678;23.364;2024-01-16T13:50:03;94233.53;;;0.54;100.00
6134;BME280;3098;42.678;23.364;2024-01-16T13:52:39;94367.94;;;1.38;100.00
6134;BME280;3098;42.678;23.364;2024-01-16T13:55:11;94663.75;;;3.26;100.00
6134;BME280;3098;42.678;23.364;2024-01-16T13:57:54;94401.38;;;1.46;100.00
6134;BME280;3098;42.678;23.364;2024-01-16T14:00:34;94624.47;;;3.16;100.00
6134;BME280;3098;42.678;23.364;2024-01-16T14:03:04;94655.63;;;3.28;100.00
6134;BME280;3098;42.678;23.364;2024-01-16T14:05:35;94590.25;;;2.82;100.00
6134;BME280;3098;42.678;23.364;2024-01-16T14:08:08;94398.53;;;1.32;100.00
6134;BME280;3098;42.678;23.364;2024-01-16T14:10:40;94441.34;;;1.51;100.00
6134;BME280;3098;42.678;23.364;2024-01-16T14:13:10;94415.50;;;1.25;100.00
6134;BME280;3098;42.678;23.364;2024-01-16T14:18:27;94684.28;;;2.84;100.00
6134;BME280;3098;42.678;23.364;2024-01-16T14:21:03;94688.78;;;2.63;100.00
6134;BME280;3098;42.678;23.364;2024-01-16T14:23:36;94157.41;;;-0.90;100.00
6134;BME280;3098;42.678;23.364;2024-01-16T14:26:05;94518.72;;;1.47;100.00
6134;BME280;3098;42.678;23.364;2024-01-16T14:28:34;94608.94;;;2.00;100.00
6134;BME280;3098;42.678;23.364;2024-01-16T14:31:17;94554.53;;;1.57;100.00
6134;BME280;3098;42.678;23.364;2024-01-16T14:33:56;94714.94;;;2.43;100.00
6134;BME280;3098;42.678;23.364;2024-01-16T14:36:54;94331.47;;;-0.05;100.00
6134;BME280;3098;42.678;23.364;2024-01-16T14:39:30;94711.78;;;2.56;100.00
6134;BME280;3098;42.678;23.364;2024-01-16T14:42:04;94477.91;;;1.06;100.00
6134;BME280;3098;42.678;23.364;2024-01-16T14:44:35;94701.31;;;2.36;100.00
6134;BME280;3098;42.678;23.364;2024-01-16T14:47:07;94306.06;;;-0.40;100.00
6134;BME280;3098;42.678;23.364;2024-01-16T14:49:40;94567.59;;;1.42;100.00
6134;BME280;3098;42.678;23.364;2024-01-16T14:54:54;94576.69;;;1.39;100.00
6134;BME280;3098;42.678;23.364;2024-01-16T14:57:25;94711.53;;;2.38;100.00
6134;BME280;3098;42.678;23.364;2024-01-16T14:59:56;94171.81;;;-1.25;100.00
6134;BME280;3098;42.678;23.364;2024-01-16T15:02:25;94301.66;;;-0.34;100.00
6134;BME280;3098;42.678;23.364;2024-01-16T15:05:06;94335.50;;;-0.39;100.00
6134;BME280;3098;42.678;23.364;2024-01-16T15:07:39;94575.91;;;1.29;100.00
6134;BME280;3098;42.678;23.364;2024-01-16T15:10:14;94741.09;;;2.18;100.00
6134;BME280;3098;42.678;23.364;2024-01-16T15:12:49;94545.78;;;1.06;100.00
6134;BME280;3098;42.678;23.364;2024-01-16T15:15:21;94579.75;;;1.11;100.00
6134;BME280;3098;42.678;23.364;2024-01-16T15:17:52;94729.81;;;2.12;100.00
6134;BME280;3098;42.678;23.364;2024-01-16T15:20:28;94603.81;;;1.13;100.00
6134;BME280;3098;42.678;23.364;2024-01-16T15:22:57;94773.78;;;2.15;100.00
6134;BME280;3098;42.678;23.364;2024-01-16T15:25:32;94522.72;;;0.78;100.00
6134;BME280;3098;42.678;23.364;2024-01-16T15:28:03;94642.88;;;1.60;100.00
6134;BME280;3098;42.678;23.364;2024-01-16T15:30:32;94478.25;;;0.52;100.00
6134;BME280;3098;42.678;23.364;2024-01-16T15:33:02;94597.81;;;1.23;100.00
6134;BME280;3098;42.678;23.364;2024-01-16T15:35:31;94659.34;;;1.55;100.00
6134;BME280;3098;42.678;23.364;2024-01-16T15:38:00;94767.50;;;2.16;100.00
6134;BME280;3098;42.678;23.364;2024-01-16T15:40:31;94772.72;;;2.16;100.00
6134;BME280;3098;42.678;23.364;2024-01-16T15:43:01;94750.97;;;1.96;100.00
6134;BME280;3098;42.678;23.364;2024-01-16T15:45:30;94688.38;;;1.64;100.00
6134;BME280;3098;42.678;23.364;2024-01-16T15:47:59;94684.41;;;1.51;100.00
6134;BME280;3098;42.678;23.364;2024-01-16T15:50:29;94654.66;;;0.95;100.00
6134;BME280;3098;42.678;23.364;2024-01-16T15:52:59;94792.75;;;1.81;100.00
6134;BME280;3098;42.678;23.364;2024-01-16T15:55:27;94813.38;;;1.77;100.00
6134;BME280;3098;42.678;23.364;2024-01-16T16:00:44;94779.13;;;1.73;100.00
6134;BME280;3098;42.678;23.364;2024-01-16T16:03:17;94490.00;;;0.03;100.00
6134;BME280;3098;42.678;23.364;2024-01-16T16:05:48;94577.53;;;0.78;100.00
6134;BME280;3098;42.678;23.364;2024-01-16T16:08:19;94370.69;;;-0.79;100.00
6134;BME280;3098;42.678;23.364;2024-01-16T16:10:52;94634.72;;;0.79;100.00
6134;BME280;3098;42.678;23.364;2024-01-16T16:13:25;94453.88;;;-0.62;100.00
6134;BME280;3098;42.678;23.364;2024-01-16T16:27:22;94836.34;;;0.91;100.00
6134;BME280;3098;42.678;23.364;2024-01-16T16:29:59;94645.97;;;-0.21;100.00
6134;BME280;3098;42.678;23.364;2024-01-16T16:32:42;94508.78;;;-0.95;100.00
6134;BME280;3098;42.678;23.364;2024-01-16T16:35:27;94499.25;;;-1.11;100.00
6134;BME280;3098;42.678;23.364;2024-01-16T16:38:06;94515.66;;;-1.11;100.00
6134;BME280;3098;42.678;23.364;2024-01-16T16:40:44;94367.75;;;-2.21;100.00
6134;BME280;3098;42.678;23.364;2024-01-16T16:43:23;94545.91;;;-1.27;100.00
6134;BME280;3098;42.678;23.364;2024-01-16T16:45:55;94627.88;;;-0.59;100.00
6134;BME280;3098;42.678;23.364;2024-01-16T16:48:32;94791.97;;;0.33;100.00
6134;BME280;3098;42.678;23.364;2024-01-16T16:51:01;94427.75;;;-2.01;100.00
6134;BME280;3098;42.678;23.364;2024-01-16T16:53:36;94524.50;;;-1.55;100.00
6134;BME280;3098;42.678;23.364;2024-01-16T16:56:05;94382.06;;;-2.40;100.00
6134;BME280;3098;42.678;23.364;2024-01-16T16:58:44;94472.41;;;-2.04;100.00
6134;BME280;3098;42.678;23.364;2024-01-16T17:01:14;94269.28;;;-3.26;100.00
6134;BME280;3098;42.678;23.364;2024-01-16T17:03:49;94623.84;;;-0.72;100.00